Range, Wisconsin
Current Conditions -  °F | °C
As of 12:35 AM on Wednesday 26 Nov 2014 (Local Time) from KOEO Reporting Station
Overcast Overcast  
Wind Chill: 17°   Ceiling: 6500
Heat Index: 25°   Visibility: 10mi
Dew Point: 19°   Wind: 7mph
Humidity: 78%   Direction: 100°E
Pressure: 30.08"   Gusts: NA
Location:  45.3559°N, 92.3527°W
Report Text: KOEO 260635Z AUTO 10006KT 10SM SCT055 OVC065 M04/M07 A3008 RMK AO2 T10411075
Loading
Personal Weather Stations






























Interactive Weather Map New forecast layout! Learn more

10-Day Weather Forecast

Advertisements
Track Severe Weather on mobile